sensor_id;sensor_type;location;lat;lon;timestamp;temperature;humidity
20985;DHT22;10651;47.552;7.606;2022-10-16T05:22:20;15.50;99.90
20985;DHT22;10651;47.552;7.606;2022-10-16T05:24:45;15.50;99.90
20985;DHT22;10651;47.552;7.606;2022-10-16T05:27:11;15.50;99.90
20985;DHT22;10651;47.552;7.606;2022-10-16T05:29:47;15.50;99.90
20985;DHT22;10651;47.552;7.606;2022-10-16T05:32:14;15.50;99.90
20985;DHT22;10651;47.552;7.606;2022-10-16T05:34:40;15.50;99.90
20985;DHT22;10651;47.552;7.606;2022-10-16T05:37:06;15.60;99.90
20985;DHT22;10651;47.552;7.606;2022-10-16T05:39:31;15.60;99.90
20985;DHT22;10651;47.552;7.606;2022-10-16T05:41:57;15.50;99.90
20985;DHT22;10651;47.552;7.606;2022-10-16T05:44:23;15.50;99.90
20985;DHT22;10651;47.552;7.606;2022-10-16T05:46:48;15.50;99.90
20985;DHT22;10651;47.552;7.606;2022-10-16T05:49:14;15.50;99.90
20985;DHT22;10651;47.552;7.606;2022-10-16T05:51:40;15.50;99.90
20985;DHT22;10651;47.552;7.606;2022-10-16T05:54:06;15.40;99.90
20985;DHT22;10651;47.552;7.606;2022-10-16T05:56:32;15.40;99.90
20985;DHT22;10651;47.552;7.606;2022-10-16T05:58:57;15.40;99.90
20985;DHT22;10651;47.552;7.606;2022-10-16T06:01:23;15.40;99.90
20985;DHT22;10651;47.552;7.606;2022-10-16T06:03:50;15.40;99.90
20985;DHT22;10651;47.552;7.606;2022-10-16T06:06:21;15.40;99.90
20985;DHT22;10651;47.552;7.606;2022-10-16T06:08:48;15.40;99.90
20985;DHT22;10651;47.552;7.606;2022-10-16T06:11:19;15.40;99.90
20985;DHT22;10651;47.552;7.606;2022-10-16T06:13:49;15.40;99.90
20985;DHT22;10651;47.552;7.606;2022-10-16T06:16:15;15.40;99.90
20985;DHT22;10651;47.552;7.606;2022-10-16T06:18:41;15.40;99.90
20985;DHT22;10651;47.552;7.606;2022-10-16T06:21:12;15.50;99.90
20985;DHT22;10651;47.552;7.606;2022-10-16T06:23:38;15.50;99.90
20985;DHT22;10651;47.552;7.606;2022-10-16T06:26:11;15.50;99.90
20985;DHT22;10651;47.552;7.606;2022-10-16T06:28:37;15.50;99.90
20985;DHT22;10651;47.552;7.606;2022-10-16T06:31:04;15.60;99.90
20985;DHT22;10651;47.552;7.606;2022-10-16T06:33:30;15.60;99.90
20985;DHT22;10651;47.552;7.606;2022-10-16T06:38:29;15.70;99.90
20985;DHT22;10651;47.552;7.606;2022-10-16T06:40:55;15.70;99.90
20985;DHT22;10651;47.552;7.606;2022-10-16T06:43:21;15.70;99.90
20985;DHT22;10651;47.552;7.606;2022-10-16T06:45:56;15.80;99.90
20985;DHT22;10651;47.552;7.606;2022-10-16T06:48:23;15.80;99.90
20985;DHT22;10651;47.552;7.606;2022-10-16T06:51:00;15.90;99.90
20985;DHT22;10651;47.552;7.606;2022-10-16T06:53:28;15.90;99.90
20985;DHT22;10651;47.552;7.606;2022-10-16T06:55:53;16.00;99.90
20985;DHT22;10651;47.552;7.606;2022-10-16T06:58:19;16.00;99.90
20985;DHT22;10651;47.552;7.606;2022-10-16T07:00:45;16.00;99.90
20985;DHT22;10651;47.552;7.606;2022-10-16T07:03:11;16.00;99.90
20985;DHT22;10651;47.552;7.606;2022-10-16T07:05:38;16.00;99.90
20985;DHT22;10651;47.552;7.606;2022-10-16T07:08:04;16.10;99.90
20985;DHT22;10651;47.552;7.606;2022-10-16T07:10:31;16.10;99.90
20985;DHT22;10651;47.552;7.606;2022-10-16T07:12:57;16.10;99.90
20985;DHT22;10651;47.552;7.606;2022-10-16T07:15:22;16.10;99.90
20985;DHT22;10651;47.552;7.606;2022-10-16T07:17:48;16.20;99.90
20985;DHT22;10651;47.552;7.606;2022-10-16T07:20:14;16.20;99.90
20985;DHT22;10651;47.552;7.606;2022-10-16T07:22:39;16.30;99.90
20985;DHT22;10651;47.552;7.606;2022-10-16T07:25:05;16.40;99.90
20985;DHT22;10651;47.552;7.606;2022-10-16T07:27:31;16.50;99.90
20985;DHT22;10651;47.552;7.606;2022-10-16T07:29:57;16.60;99.90
20985;DHT22;10651;47.552;7.606;2022-10-16T07:32:22;16.70;99.90
20985;DHT22;10651;47.552;7.606;2022-10-16T07:34:49;17.00;99.90
20985;DHT22;10651;47.552;7.606;2022-10-16T07:37:14;17.10;99.90
20985;DHT22;10651;47.552;7.606;2022-10-16T07:39:40;17.20;99.90
20985;DHT22;10651;47.552;7.606;2022-10-16T07:42:05;17.10;99.90
20985;DHT22;10651;47.552;7.606;2022-10-16T07:44:31;17.10;99.90
20985;DHT22;10651;47.552;7.606;2022-10-16T07:46:56;17.20;99.90
20985;DHT22;10651;47.552;7.606;2022-10-16T07:49:23;17.40;99.90
20985;DHT22;10651;47.552;7.606;2022-10-16T07:51:48;17.60;99.90
20985;DHT22;10651;47.552;7.606;2022-10-16T07:54:14;17.80;99.90
20985;DHT22;10651;47.552;7.606;2022-10-16T07:56:40;18.00;99.90
20985;DHT22;10651;47.552;7.606;2022-10-16T07:59:06;18.40;99.90
20985;DHT22;10651;47.552;7.606;2022-10-16T08:01:31;18.60;99.90
20985;DHT22;10651;47.552;7.606;2022-10-16T08:03:57;18.60;99.90
20985;DHT22;10651;47.552;7.606;2022-10-16T08:06:23;18.90;99.90
20985;DHT22;10651;47.552;7.606;2022-10-16T08:08:49;19.10;99.90
20985;DHT22;10651;47.552;7.606;2022-10-16T08:11:14;19.40;99.90
20985;DHT22;10651;47.552;7.606;2022-10-16T08:13:41;19.60;99.90
20985;DHT22;10651;47.552;7.606;2022-10-16T08:16:07;19.70;99.90
20985;DHT22;10651;47.552;7.606;2022-10-16T08:18:40;19.90;99.90
20985;DHT22;10651;47.552;7.606;2022-10-16T08:21:08;20.10;99.90
20985;DHT22;10651;47.552;7.606;2022-10-16T08:23:37;20.20;99.90
20985;DHT22;10651;47.552;7.606;2022-10-16T08:26:06;20.30;99.90
20985;DHT22;10651;47.552;7.606;2022-10-16T08:28:32;20.50;99.90
20985;DHT22;10651;47.552;7.606;2022-10-16T08:31:05;20.80;99.90
20985;DHT22;10651;47.552;7.606;2022-10-16T08:33:31;20.90;99.90
20985;DHT22;10651;47.552;7.606;2022-10-16T08:35:57;21.00;99.90
20985;DHT22;10651;47.552;7.606;2022-10-16T08:38:22;21.10;99.90
20985;DHT22;10651;47.552;7.606;2022-10-16T08:40:48;21.40;99.90
20985;DHT22;10651;47.552;7.606;2022-10-16T08:48:47;21.40;99.90
20985;DHT22;10651;47.552;7.606;2022-10-16T08:54:06;20.40;99.90
20985;DHT22;10651;47.552;7.606;2022-10-16T08:56:32;20.30;99.90
20985;DHT22;10651;47.552;7.606;2022-10-16T08:58:59;20.60;99.90
20985;DHT22;10651;47.552;7.606;2022-10-16T09:01:37;21.30;99.90
20985;DHT22;10651;47.552;7.606;2022-10-16T09:12:08;21.80;99.90
20985;DHT22;10651;47.552;7.606;2022-10-16T09:20:19;21.90;99.90
20985;DHT22;10651;47.552;7.606;2022-10-16T09:22:46;22.00;99.90
20985;DHT22;10651;47.552;7.606;2022-10-16T09:25:17;22.20;99.90
20985;DHT22;10651;47.552;7.606;2022-10-16T09:27:46;23.00;99.90
20985;DHT22;10651;47.552;7.606;2022-10-16T09:30:15;22.70;99.90
20985;DHT22;10651;47.552;7.606;2022-10-16T09:32:42;22.50;99.90
20985;DHT22;10651;47.552;7.606;2022-10-16T09:35:15;23.50;99.90
20985;DHT22;10651;47.552;7.606;2022-10-16T09:37:43;28.10;99.90
20985;DHT22;10651;47.552;7.606;2022-10-16T09:40:28;30.80;99.90
20985;DHT22;10651;47.552;7.606;2022-10-16T09:43:02;33.10;99.90
20985;DHT22;10651;47.552;7.606;2022-10-16T09:45:29;36.10;99.90
20985;DHT22;10651;47.552;7.606;2022-10-16T09:47:54;35.80;99.90
20985;DHT22;10651;47.552;7.606;2022-10-16T09:50:27;37.00;98.10
20985;DHT22;10651;47.552;7.606;2022-10-16T09:53:13;36.10;96.40
20985;DHT22;10651;47.552;7.606;2022-10-16T09:55:52;37.80;94.90
20985;DHT22;10651;47.552;7.606;2022-10-16T09:58:20;38.40;89.70
20985;DHT22;10651;47.552;7.606;2022-10-16T10:00:51;37.60;90.40
20985;DHT22;10651;47.552;7.606;2022-10-16T10:03:37;38.60;91.00
20985;DHT22;10651;47.552;7.606;2022-10-16T10:06:16;41.10;82.50
20985;DHT22;10651;47.552;7.606;2022-10-16T10:14:43;41.90;73.60
20985;DHT22;10651;47.552;7.606;2022-10-16T10:30:56;43.90;69.20
20985;DHT22;10651;47.552;7.606;2022-10-16T10:38:39;44.60;61.60
20985;DHT22;10651;47.552;7.606;2022-10-16T10:46:56;45.40;62.90
20985;DHT22;10651;47.552;7.606;2022-10-16T10:54:52;46.50;58.30
20985;DHT22;10651;47.552;7.606;2022-10-16T10:57:30;45.60;58.20
20985;DHT22;10651;47.552;7.606;2022-10-16T11:02:58;44.80;58.20
20985;DHT22;10651;47.552;7.606;2022-10-16T11:05:44;44.70;58.60
20985;DHT22;10651;47.552;7.606;2022-10-16T11:08:19;43.50;59.10
20985;DHT22;10651;47.552;7.606;2022-10-16T11:11:03;42.80;61.60
20985;DHT22;10651;47.552;7.606;2022-10-16T11:13:37;43.70;62.10
20985;DHT22;10651;47.552;7.606;2022-10-16T11:16:14;43.70;59.40
20985;DHT22;10651;47.552;7.606;2022-10-16T11:18:49;42.90;61.30
20985;DHT22;10651;47.552;7.606;2022-10-16T11:21:19;41.80;61.90
20985;DHT22;10651;47.552;7.606;2022-10-16T11:24:06;42.10;61.00
20985;DHT22;10651;47.552;7.606;2022-10-16T11:26:41;42.70;62.90
20985;DHT22;10651;47.552;7.606;2022-10-16T11:29:16;41.50;63.60
20985;DHT22;10651;47.552;7.606;2022-10-16T11:31:54;40.90;63.70
20985;DHT22;10651;47.552;7.606;2022-10-16T11:36:51;41.50;62.90
20985;DHT22;10651;47.552;7.606;2022-10-16T11:39:25;43.70;62.00
20985;DHT22;10651;47.552;7.606;2022-10-16T11:42:19;44.40;60.30
20985;DHT22;10651;47.552;7.606;2022-10-16T11:47:29;43.20;59.20
20985;DHT22;10651;47.552;7.606;2022-10-16T11:50:02;43.60;60.40
20985;DHT22;10651;47.552;7.606;2022-10-16T11:55:20;40.10;62.60
20985;DHT22;10651;47.552;7.606;2022-10-16T11:57:57;39.70;65.40
20985;DHT22;10651;47.552;7.606;2022-10-16T12:00:26;40.80;65.50
20985;DHT22;10651;47.552;7.606;2022-10-16T12:03:22;41.50;64.10
20985;DHT22;10651;47.552;7.606;2022-10-16T12:08:39;40.20;65.40
20985;DHT22;10651;47.552;7.606;2022-10-16T12:11:24;40.60;64.40
20985;DHT22;10651;47.552;7.606;2022-10-16T12:14:18;42.00;63.80
20985;DHT22;10651;47.552;7.606;2022-10-16T12:17:40;43.40;60.70
20985;DHT22;10651;47.552;7.606;2022-10-16T12:19:58;44.90;58.70
20985;DHT22;10651;47.552;7.606;2022-10-16T12:22:27;43.90;57.60
20985;DHT22;10651;47.552;7.606;2022-10-16T12:24:54;44.30;57.40
20985;DHT22;10651;47.552;7.606;2022-10-16T12:27:29;46.20;55.70
20985;DHT22;10651;47.552;7.606;2022-10-16T12:29:58;46.50;53.80
20985;DHT22;10651;47.552;7.606;2022-10-16T12:32:29;45.30;54.80
20985;DHT22;10651;47.552;7.606;2022-10-16T12:34:56;46.80;55.10
20985;DHT22;10651;47.552;7.606;2022-10-16T12:37:25;47.70;54.60
20985;DHT22;10651;47.552;7.606;2022-10-16T12:39:53;47.20;54.00
20985;DHT22;10651;47.552;7.606;2022-10-16T12:44:55;44.80;53.10
20985;DHT22;10651;47.552;7.606;2022-10-16T12:47:48;44.30;55.10
20985;DHT22;10651;47.552;7.606;2022-10-16T12:50:36;45.40;54.80
20985;DHT22;10651;47.552;7.606;2022-10-16T12:53:04;46.10;53.40
20985;DHT22;10651;47.552;7.606;2022-10-16T13:01:55;44.60;55.20
20985;DHT22;10651;47.552;7.606;2022-10-16T13:07:36;46.70;52.10
20985;DHT22;10651;47.552;7.606;2022-10-16T13:10:10;46.00;53.80
20985;DHT22;10651;47.552;7.606;2022-10-16T13:21:33;47.40;52.20
20985;DHT22;10651;47.552;7.606;2022-10-16T13:27:07;47.00;51.20
20985;DHT22;10651;47.552;7.606;2022-10-16T13:29:38;48.40;50.40
20985;DHT22;10651;47.552;7.606;2022-10-16T13:32:11;48.40;49.80
20985;DHT22;10651;47.552;7.606;2022-10-16T13:34:47;47.60;49.40
20985;DHT22;10651;47.552;7.606;2022-10-16T13:37:21;47.70;49.70
20985;DHT22;10651;47.552;7.606;2022-10-16T13:39:47;47.60;49.80
20985;DHT22;10651;47.552;7.606;2022-10-16T13:42:24;46.50;49.90
20985;DHT22;10651;47.552;7.606;2022-10-16T13:44:52;44.90;50.70
20985;DHT22;10651;47.552;7.606;2022-10-16T13:47:29;45.50;50.80
20985;DHT22;10651;47.552;7.606;2022-10-16T13:50:05;46.00;51.10
20985;DHT22;10651;47.552;7.606;2022-10-16T13:52:32;46.50;49.50
20985;DHT22;10651;47.552;7.606;2022-10-16T13:54:57;46.20;50.40
20985;DHT22;10651;47.552;7.606;2022-10-16T13:57:24;46.40;50.20
20985;DHT22;10651;47.552;7.606;2022-10-16T13:59:50;46.50;51.10
20985;DHT22;10651;47.552;7.606;2022-10-16T14:02:26;46.20;50.20
20985;DHT22;10651;47.552;7.606;2022-10-16T14:04:53;44.90;50.10
20985;DHT22;10651;47.552;7.606;2022-10-16T14:07:31;43.90;50.80
20985;DHT22;10651;47.552;7.606;2022-10-16T14:10:02;43.10;51.90
20985;DHT22;10651;47.552;7.606;2022-10-16T14:12:28;43.20;51.60
20985;DHT22;10651;47.552;7.606;2022-10-16T14:14:55;42.70;53.30
20985;DHT22;10651;47.552;7.606;2022-10-16T14:17:31;43.20;52.30
20985;DHT22;10651;47.552;7.606;2022-10-16T14:19:59;42.60;52.30
20985;DHT22;10651;47.552;7.606;2022-10-16T14:22:30;42.20;54.30
20985;DHT22;10651;47.552;7.606;2022-10-16T14:24:57;42.10;54.00
20985;DHT22;10651;47.552;7.606;2022-10-16T14:30:24;40.50;55.20
20985;DHT22;10651;47.552;7.606;2022-10-16T14:33:01;39.00;56.50
20985;DHT22;10651;47.552;7.606;2022-10-16T14:35:38;37.30;57.50
20985;DHT22;10651;47.552;7.606;2022-10-16T14:38:06;36.20;59.50
20985;DHT22;10651;47.552;7.606;2022-10-16T14:40:34;35.50;61.80
20985;DHT22;10651;47.552;7.606;2022-10-16T14:43:01;34.70;63.60
20985;DHT22;10651;47.552;7.606;2022-10-16T14:45:30;34.10;63.60
20985;DHT22;10651;47.552;7.606;2022-10-16T14:47:59;33.70;65.60
20985;DHT22;10651;47.552;7.606;2022-10-16T14:50:25;33.10;67.20
20985;DHT22;10651;47.552;7.606;2022-10-16T14:52:51;32.60;67.10
20985;DHT22;10651;47.552;7.606;2022-10-16T14:55:17;32.20;69.30
20985;DHT22;10651;47.552;7.606;2022-10-16T14:57:44;31.80;70.10
20985;DHT22;10651;47.552;7.606;2022-10-16T15:00:22;31.60;70.10
20985;DHT22;10651;47.552;7.606;2022-10-16T15:02:49;31.60;70.00
20985;DHT22;10651;47.552;7.606;2022-10-16T15:07:42;31.40;71.70
20985;DHT22;10651;47.552;7.606;2022-10-16T15:10:09;31.20;73.70
20985;DHT22;10651;47.552;7.606;2022-10-16T15:12:35;31.00;74.40
20985;DHT22;10651;47.552;7.606;2022-10-16T15:15:01;30.50;74.90
20985;DHT22;10651;47.552;7.606;2022-10-16T15:17:26;30.10;75.80
20985;DHT22;10651;47.552;7.606;2022-10-16T15:19:52;30.00;76.00
20985;DHT22;10651;47.552;7.606;2022-10-16T15:22:17;29.90;77.50
20985;DHT22;10651;47.552;7.606;2022-10-16T15:24:43;29.70;78.40
20985;DHT22;10651;47.552;7.606;2022-10-16T15:27:09;29.70;79.90
20985;DHT22;10651;47.552;7.606;2022-10-16T15:29:35;29.70;80.00
20985;DHT22;10651;47.552;7.606;2022-10-16T15:32:01;29.60;81.10
20985;DHT22;10651;47.552;7.606;2022-10-16T15:34:26;29.40;80.00
20985;DHT22;10651;47.552;7.606;2022-10-16T15:36:52;29.10;82.00
20985;DHT22;10651;47.552;7.606;2022-10-16T15:39:19;28.70;82.70
20985;DHT22;10651;47.552;7.606;2022-10-16T15:41:46;28.70;83.80
20985;DHT22;10651;47.552;7.606;2022-10-16T15:44:20;28.60;84.50
20985;DHT22;10651;47.552;7.606;2022-10-16T15:46:46;28.40;84.20
20985;DHT22;10651;47.552;7.606;2022-10-16T15:49:12;28.00;85.30
20985;DHT22;10651;47.552;7.606;2022-10-16T15:51:39;27.80;83.50
20985;DHT22;10651;47.552;7.606;2022-10-16T15:54:05;27.70;84.40
20985;DHT22;10651;47.552;7.606;2022-10-16T15:56:30;27.60;85.20
20985;DHT22;10651;47.552;7.606;2022-10-16T15:59:01;27.40;87.00
20985;DHT22;10651;47.552;7.606;2022-10-16T16:01:27;27.20;88.50
20985;DHT22;10651;47.552;7.606;2022-10-16T16:03:55;26.80;89.20
20985;DHT22;10651;47.552;7.606;2022-10-16T16:06:22;26.60;90.50
20985;DHT22;10651;47.552;7.606;2022-10-16T16:08:49;26.40;91.20
20985;DHT22;10651;47.552;7.606;2022-10-16T16:11:16;26.30;91.10
20985;DHT22;10651;47.552;7.606;2022-10-16T16:13:42;26.10;92.30
20985;DHT22;10651;47.552;7.606;2022-10-16T16:16:13;25.90;92.90
20985;DHT22;10651;47.552;7.606;2022-10-16T16:18:40;25.70;92.80
20985;DHT22;10651;47.552;7.606;2022-10-16T16:21:06;25.60;93.10
20985;DHT22;10651;47.552;7.606;2022-10-16T16:23:33;25.50;94.10
20985;DHT22;10651;47.552;7.606;2022-10-16T16:26:11;25.40;94.60
20985;DHT22;10651;47.552;7.606;2022-10-16T16:28:37;25.20;95.00
20985;DHT22;10651;47.552;7.606;2022-10-16T16:31:03;25.10;95.30
20985;DHT22;10651;47.552;7.606;2022-10-16T16:33:29;25.00;96.50
20985;DHT22;10651;47.552;7.606;2022-10-16T16:36:01;24.80;96.60
20985;DHT22;10651;47.552;7.606;2022-10-16T16:38:27;24.60;97.70
20985;DHT22;10651;47.552;7.606;2022-10-16T16:40:54;24.40;98.50
20985;DHT22;10651;47.552;7.606;2022-10-16T16:43:26;24.30;99.00
20985;DHT22;10651;47.552;7.606;2022-10-16T16:45:52;24.20;99.70
20985;DHT22;10651;47.552;7.606;2022-10-16T16:48:18;24.10;99.90
20985;DHT22;10651;47.552;7.606;2022-10-16T16:50:44;24.00;99.90
20985;DHT22;10651;47.552;7.606;2022-10-16T16:53:10;23.80;99.90
20985;DHT22;10651;47.552;7.606;2022-10-16T16:55:35;23.80;99.90
20985;DHT22;10651;47.552;7.606;2022-10-16T16:58:01;23.70;99.90
20985;DHT22;10651;47.552;7.606;2022-10-16T17:00:28;23.60;99.90
20985;DHT22;10651;47.552;7.606;2022-10-16T17:02:53;23.50;99.90
20985;DHT22;10651;47.552;7.606;2022-10-16T17:05:19;23.50;99.90
20985;DHT22;10651;47.552;7.606;2022-10-16T17:07:45;23.40;99.90
20985;DHT22;10651;47.552;7.606;2022-10-16T17:10:10;23.20;99.90
20985;DHT22;10651;47.552;7.606;2022-10-16T17:12:36;23.20;99.90
20985;DHT22;10651;47.552;7.606;2022-10-16T17:15:02;23.10;99.90
20985;DHT22;10651;47.552;7.606;2022-10-16T17:17:28;23.10;99.90
20985;DHT22;10651;47.552;7.606;2022-10-16T17:19:54;23.10;99.90
20985;DHT22;10651;47.552;7.606;2022-10-16T17:22:20;23.10;99.90
20985;DHT22;10651;47.552;7.606;2022-10-16T17:24:49;23.00;99.90
20985;DHT22;10651;47.552;7.606;2022-10-16T17:27:17;22.90;99.90
20985;DHT22;10651;47.552;7.606;2022-10-16T17:29:42;22.80;99.90
20985;DHT22;10651;47.552;7.606;2022-10-16T17:32:08;22.80;99.90
20985;DHT22;10651;47.552;7.606;2022-10-16T17:34:33;22.60;99.90
20985;DHT22;10651;47.552;7.606;2022-10-16T17:37:00;22.60;99.90
20985;DHT22;10651;47.552;7.606;2022-10-16T17:39:25;22.50;99.90
20985;DHT22;10651;47.552;7.606;2022-10-16T17:41:51;22.50;99.90
20985;DHT22;10651;47.552;7.606;2022-10-16T17:44:17;22.40;99.90
20985;DHT22;10651;47.552;7.606;2022-10-16T17:46:47;22.30;99.90
20985;DHT22;10651;47.552;7.606;2022-10-16T17:49:13;22.20;99.90
20985;DHT22;10651;47.552;7.606;2022-10-16T17:51:38;22.10;99.90
20985;DHT22;10651;47.552;7.606;2022-10-16T17:54:05;22.10;99.90
20985;DHT22;10651;47.552;7.606;2022-10-16T17:56:32;22.00;99.90
20985;DHT22;10651;47.552;7.606;2022-10-16T17:59:00;21.90;99.90
20985;DHT22;10651;47.552;7.606;2022-10-16T18:01:28;21.80;99.90
20985;DHT22;10651;47.552;7.606;2022-10-16T18:03:57;21.70;99.90
20985;DHT22;10651;47.552;7.606;2022-10-16T18:06:23;21.70;99.90
20985;DHT22;10651;47.552;7.606;2022-10-16T18:08:49;21.70;99.90
20985;DHT22;10651;47.552;7.606;2022-10-16T18:11:15;21.60;99.90
20985;DHT22;10651;47.552;7.606;2022-10-16T18:13:41;21.50;99.90
20985;DHT22;10651;47.552;7.606;2022-10-16T18:16:09;21.30;99.90
20985;DHT22;10651;47.552;7.606;2022-10-16T18:18:36;21.20;99.90
20985;DHT22;10651;47.552;7.606;2022-10-16T18:21:05;21.20;99.90
20985;DHT22;10651;47.552;7.606;2022-10-16T18:23:33;21.10;99.90
20985;DHT22;10651;47.552;7.606;2022-10-16T18:25:59;21.10;99.90
20985;DHT22;10651;47.552;7.606;2022-10-16T18:28:25;21.00;99.90
20985;DHT22;10651;47.552;7.606;2022-10-16T18:33:21;20.90;99.90
20985;DHT22;10651;47.552;7.606;2022-10-16T18:35:46;20.90;99.90
20985;DHT22;10651;47.552;7.606;2022-10-16T18:38:12;20.80;99.90
20985;DHT22;10651;47.552;7.606;2022-10-16T18:40:38;20.70;99.90
20985;DHT22;10651;47.552;7.606;2022-10-16T18:43:16;20.80;99.90
20985;DHT22;10651;47.552;7.606;2022-10-16T18:45:43;20.70;99.90
20985;DHT22;10651;47.552;7.606;2022-10-16T18:48:09;20.70;99.90
20985;DHT22;10651;47.552;7.606;2022-10-16T18:50:35;20.60;99.90
20985;DHT22;10651;47.552;7.606;2022-10-16T18:53:00;20.60;99.90
20985;DHT22;10651;47.552;7.606;2022-10-16T18:55:26;20.50;99.90
20985;DHT22;10651;47.552;7.606;2022-10-16T18:57:54;20.40;99.90
20985;DHT22;10651;47.552;7.606;2022-10-16T19:00:19;20.30;99.90
20985;DHT22;10651;47.552;7.606;2022-10-16T19:02:45;20.20;99.90
20985;DHT22;10651;47.552;7.606;2022-10-16T19:05:11;20.20;99.90
20985;DHT22;10651;47.552;7.606;2022-10-16T19:07:36;20.30;99.90
20985;DHT22;10651;47.552;7.606;2022-10-16T19:10:03;20.20;99.90
20985;DHT22;10651;47.552;7.606;2022-10-16T19:12:28;20.20;99.90
20985;DHT22;10651;47.552;7.606;2022-10-16T19:14:54;20.20;99.90
20985;DHT22;10651;47.552;7.606;2022-10-16T19:17:19;20.20;99.90
20985;DHT22;10651;47.552;7.606;2022-10-16T19:19:45;20.10;99.90
20985;DHT22;10651;47.552;7.606;2022-10-16T19:22:11;20.10;99.90
20985;DHT22;10651;47.552;7.606;2022-10-16T19:24:44;20.10;99.90
20985;DHT22;10651;47.552;7.606;2022-10-16T19:27:10;20.00;99.90
20985;DHT22;10651;47.552;7.606;2022-10-16T19:29:36;20.00;99.90
20985;DHT22;10651;47.552;7.606;2022-10-16T19:32:01;20.00;99.90
20985;DHT22;10651;47.552;7.606;2022-10-16T19:34:28;19.90;99.90
20985;DHT22;10651;47.552;7.606;2022-10-16T19:36:55;19.90;99.90
20985;DHT22;10651;47.552;7.606;2022-10-16T19:39:20;19.80;99.90
20985;DHT22;10651;47.552;7.606;2022-10-16T19:41:46;19.80;99.90
20985;DHT22;10651;47.552;7.606;2022-10-16T19:44:14;19.70;99.90
20985;DHT22;10651;47.552;7.606;2022-10-16T19:46:41;19.70;99.90
20985;DHT22;10651;47.552;7.606;2022-10-16T19:49:11;19.60;99.90
20985;DHT22;10651;47.552;7.606;2022-10-16T19:51:37;19.60;99.90
20985;DHT22;10651;47.552;7.606;2022-10-16T19:54:06;19.60;99.90
20985;DHT22;10651;47.552;7.606;2022-10-16T19:56:33;19.60;99.90
20985;DHT22;10651;47.552;7.606;2022-10-16T19:58:59;19.60;99.90
20985;DHT22;10651;47.552;7.606;2022-10-16T20:01:27;19.50;99.90
20985;DHT22;10651;47.552;7.606;2022-10-16T20:03:53;19.40;99.90
20985;DHT22;10651;47.552;7.606;2022-10-16T20:06:19;19.30;99.90
20985;DHT22;10651;47.552;7.606;2022-10-16T20:08:48;19.30;99.90
20985;DHT22;10651;47.552;7.606;2022-10-16T20:11:17;19.30;99.90
20985;DHT22;10651;47.552;7.606;2022-10-16T20:13:43;19.30;99.90
20985;DHT22;10651;47.552;7.606;2022-10-16T20:16:10;19.20;99.90
20985;DHT22;10651;47.552;7.606;2022-10-16T20:18:36;19.20;99.90
20985;DHT22;10651;47.552;7.606;2022-10-16T20:21:15;19.20;99.90
20985;DHT22;10651;47.552;7.606;2022-10-16T20:23:41;19.20;99.90
20985;DHT22;10651;47.552;7.606;2022-10-16T20:26:07;19.20;99.90
20985;DHT22;10651;47.552;7.606;2022-10-16T20:28:37;19.20;99.90
20985;DHT22;10651;47.552;7.606;2022-10-16T20:31:08;19.10;99.90
20985;DHT22;10651;47.552;7.606;2022-10-16T20:33:35;19.10;99.90
20985;DHT22;10651;47.552;7.606;2022-10-16T20:36:01;19.00;99.90
20985;DHT22;10651;47.552;7.606;2022-10-16T20:38:27;19.00;99.90
20985;DHT22;10651;47.552;7.606;2022-10-16T20:40:52;19.00;99.90
20985;DHT22;10651;47.552;7.606;2022-10-16T20:43:18;19.00;99.90
20985;DHT22;10651;47.552;7.606;2022-10-16T20:45:44;19.00;99.90
20985;DHT22;10651;47.552;7.606;2022-10-16T20:48:11;19.00;99.90
20985;DHT22;10651;47.552;7.606;2022-10-16T20:50:38;18.90;99.90
20985;DHT22;10651;47.552;7.606;2022-10-16T20:53:04;18.80;99.90
20985;DHT22;10651;47.552;7.606;2022-10-16T20:55:30;18.80;99.90
20985;DHT22;10651;47.552;7.606;2022-10-16T20:57:58;18.80;99.90
20985;DHT22;10651;47.552;7.606;2022-10-16T21:00:24;18.70;99.90
20985;DHT22;10651;47.552;7.606;2022-10-16T21:02:50;18.60;99.90
20985;DHT22;10651;47.552;7.606;2022-10-16T21:05:17;18.60;99.90
20985;DHT22;10651;47.552;7.606;2022-10-16T21:10:09;18.60;99.90
20985;DHT22;10651;47.552;7.606;2022-10-16T21:12:35;18.50;99.90
20985;DHT22;10651;47.552;7.606;2022-10-16T21:15:00;18.60;99.90
20985;DHT22;10651;47.552;7.606;2022-10-16T21:17:26;18.60;99.90
20985;DHT22;10651;47.552;7.606;2022-10-16T21:19:51;18.60;99.90
20985;DHT22;10651;47.552;7.606;2022-10-16T21:22:17;18.50;99.90
20985;DHT22;10651;47.552;7.606;2022-10-16T21:24:43;18.50;99.90
20985;DHT22;10651;47.552;7.606;2022-10-16T21:27:08;18.50;99.90
20985;DHT22;10651;47.552;7.606;2022-10-16T21:29:34;18.50;99.90
20985;DHT22;10651;47.552;7.606;2022-10-16T21:32:00;18.40;99.90
20985;DHT22;10651;47.552;7.606;2022-10-16T21:34:25;18.40;99.90
20985;DHT22;10651;47.552;7.606;2022-10-16T21:36:51;18.40;99.90
20985;DHT22;10651;47.552;7.606;2022-10-16T21:39:18;18.40;99.90
20985;DHT22;10651;47.552;7.606;2022-10-16T21:41:46;18.30;99.90
20985;DHT22;10651;47.552;7.606;2022-10-16T21:44:12;18.30;99.90
20985;DHT22;10651;47.552;7.606;2022-10-16T21:46:40;18.30;99.90
20985;DHT22;10651;47.552;7.606;2022-10-16T21:49:09;18.30;99.90
20985;DHT22;10651;47.552;7.606;2022-10-16T21:51:38;18.20;99.90
20985;DHT22;10651;47.552;7.606;2022-10-16T21:54:06;18.20;99.90
20985;DHT22;10651;47.552;7.606;2022-10-16T21:56:33;18.20;99.90
20985;DHT22;10651;47.552;7.606;2022-10-16T21:58:59;18.20;99.90
20985;DHT22;10651;47.552;7.606;2022-10-16T22:01:26;18.20;99.90
20985;DHT22;10651;47.552;7.606;2022-10-16T22:03:51;18.20;99.90
20985;DHT22;10651;47.552;7.606;2022-10-16T22:06:19;18.10;99.90
20985;DHT22;10651;47.552;7.606;2022-10-16T22:08:49;18.10;99.90
20985;DHT22;10651;47.552;7.606;2022-10-16T22:11:24;18.10;99.90
20985;DHT22;10651;47.552;7.606;2022-10-16T22:13:51;18.00;99.90
20985;DHT22;10651;47.552;7.606;2022-10-16T22:18:46;18.30;99.90
20985;DHT22;10651;47.552;7.606;2022-10-16T22:23:38;17.90;99.90
20985;DHT22;10651;47.552;7.606;2022-10-16T22:26:06;17.90;99.90
20985;DHT22;10651;47.552;7.606;2022-10-16T22:28:32;17.90;99.90
20985;DHT22;10651;47.552;7.606;2022-10-16T22:31:02;17.90;99.90
20985;DHT22;10651;47.552;7.606;2022-10-16T22:33:28;17.90;99.90
20985;DHT22;10651;47.552;7.606;2022-10-16T22:35:54;17.80;99.90
20985;DHT22;10651;47.552;7.606;2022-10-16T22:38:19;17.80;99.90
